sensor_id;sensor_type;location;lat;lon;timestamp;temperature;humidity
15959;DHT22;8078;47.822;9.402;2023-09-07T00:01:18;14.90;99.90
15959;DHT22;8078;47.822;9.402;2023-09-07T00:03:43;14.90;99.90
15959;DHT22;8078;47.822;9.402;2023-09-07T00:06:09;14.80;99.90
15959;DHT22;8078;47.822;9.402;2023-09-07T00:08:37;14.80;99.90
15959;DHT22;8078;47.822;9.402;2023-09-07T00:11:04;14.80;99.90
15959;DHT22;8078;47.822;9.402;2023-09-07T00:13:30;14.80;99.90
15959;DHT22;8078;47.822;9.402;2023-09-07T00:16:02;14.80;99.90
15959;DHT22;8078;47.822;9.402;2023-09-07T00:18:29;14.70;99.90
15959;DHT22;8078;47.822;9.402;2023-09-07T00:20:54;14.60;99.90
15959;DHT22;8078;47.822;9.402;2023-09-07T00:23:20;14.60;99.90
15959;DHT22;8078;47.822;9.402;2023-09-07T00:25:46;14.50;99.90
15959;DHT22;8078;47.822;9.402;2023-09-07T00:28:12;14.50;99.90
15959;DHT22;8078;47.822;9.402;2023-09-07T00:30:38;14.40;99.90
15959;DHT22;8078;47.822;9.402;2023-09-07T00:33:04;14.40;99.90
15959;DHT22;8078;47.822;9.402;2023-09-07T00:35:30;14.30;99.90
15959;DHT22;8078;47.822;9.402;2023-09-07T00:37:56;14.30;99.90
15959;DHT22;8078;47.822;9.402;2023-09-07T00:40:24;14.30;99.90
15959;DHT22;8078;47.822;9.402;2023-09-07T00:42:51;14.30;99.90
15959;DHT22;8078;47.822;9.402;2023-09-07T00:45:17;14.20;99.90
15959;DHT22;8078;47.822;9.402;2023-09-07T00:47:43;14.20;99.90
15959;DHT22;8078;47.822;9.402;2023-09-07T00:50:09;14.20;99.90
15959;DHT22;8078;47.822;9.402;2023-09-07T00:52:36;14.20;99.90
15959;DHT22;8078;47.822;9.402;2023-09-07T00:55:05;14.20;99.90
15959;DHT22;8078;47.822;9.402;2023-09-07T00:57:31;14.20;99.90
15959;DHT22;8078;47.822;9.402;2023-09-07T00:59:57;14.20;99.90
15959;DHT22;8078;47.822;9.402;2023-09-07T01:02:23;14.20;99.90
15959;DHT22;8078;47.822;9.402;2023-09-07T01:04:50;14.30;99.90
15959;DHT22;8078;47.822;9.402;2023-09-07T01:07:32;14.30;99.90
15959;DHT22;8078;47.822;9.402;2023-09-07T01:10:00;14.20;99.90
15959;DHT22;8078;47.822;9.402;2023-09-07T01:12:27;14.20;99.90
15959;DHT22;8078;47.822;9.402;2023-09-07T01:14:53;14.20;99.90
15959;DHT22;8078;47.822;9.402;2023-09-07T01:17:20;14.20;99.90
15959;DHT22;8078;47.822;9.402;2023-09-07T01:19:48;14.20;99.90
15959;DHT22;8078;47.822;9.402;2023-09-07T01:22:19;14.20;99.90
15959;DHT22;8078;47.822;9.402;2023-09-07T01:24:45;14.20;99.90
15959;DHT22;8078;47.822;9.402;2023-09-07T01:27:12;14.20;99.90
15959;DHT22;8078;47.822;9.402;2023-09-07T01:29:39;14.20;99.90
15959;DHT22;8078;47.822;9.402;2023-09-07T01:32:05;14.20;99.90
15959;DHT22;8078;47.822;9.402;2023-09-07T01:34:31;14.20;99.90
15959;DHT22;8078;47.822;9.402;2023-09-07T01:36:57;14.30;99.90
15959;DHT22;8078;47.822;9.402;2023-09-07T01:39:22;14.40;99.90
15959;DHT22;8078;47.822;9.402;2023-09-07T01:41:48;14.40;99.90
15959;DHT22;8078;47.822;9.402;2023-09-07T01:44:14;14.40;99.90
15959;DHT22;8078;47.822;9.402;2023-09-07T01:46:39;14.40;99.90
15959;DHT22;8078;47.822;9.402;2023-09-07T01:49:05;14.40;99.90
15959;DHT22;8078;47.822;9.402;2023-09-07T01:51:30;14.30;99.90
15959;DHT22;8078;47.822;9.402;2023-09-07T01:53:56;14.30;99.90
15959;DHT22;8078;47.822;9.402;2023-09-07T01:56:21;14.40;99.90
15959;DHT22;8078;47.822;9.402;2023-09-07T01:58:47;14.70;99.90
15959;DHT22;8078;47.822;9.402;2023-09-07T02:01:23;14.90;99.90
15959;DHT22;8078;47.822;9.402;2023-09-07T02:03:49;15.10;99.90
15959;DHT22;8078;47.822;9.402;2023-09-07T02:06:15;15.20;99.90
15959;DHT22;8078;47.822;9.402;2023-09-07T02:08:40;15.30;99.90
15959;DHT22;8078;47.822;9.402;2023-09-07T02:11:06;15.30;99.90
15959;DHT22;8078;47.822;9.402;2023-09-07T02:13:32;15.20;99.90
15959;DHT22;8078;47.822;9.402;2023-09-07T02:15:57;15.20;99.90
15959;DHT22;8078;47.822;9.402;2023-09-07T02:18:23;15.20;99.90
15959;DHT22;8078;47.822;9.402;2023-09-07T02:20:48;15.20;99.90
15959;DHT22;8078;47.822;9.402;2023-09-07T02:23:14;15.20;99.90
15959;DHT22;8078;47.822;9.402;2023-09-07T02:25:40;15.20;99.90
15959;DHT22;8078;47.822;9.402;2023-09-07T02:28:06;15.10;99.90
15959;DHT22;8078;47.822;9.402;2023-09-07T02:30:32;15.10;99.90
15959;DHT22;8078;47.822;9.402;2023-09-07T02:32:57;15.10;99.90
15959;DHT22;8078;47.822;9.402;2023-09-07T02:35:23;15.20;99.90
15959;DHT22;8078;47.822;9.402;2023-09-07T02:37:49;15.20;99.90
15959;DHT22;8078;47.822;9.402;2023-09-07T02:40:14;15.20;99.90
15959;DHT22;8078;47.822;9.402;2023-09-07T02:42:41;15.20;99.90
15959;DHT22;8078;47.822;9.402;2023-09-07T02:45:10;15.10;99.90
15959;DHT22;8078;47.822;9.402;2023-09-07T02:47:38;15.10;99.90
15959;DHT22;8078;47.822;9.402;2023-09-07T02:50:03;15.10;99.90
15959;DHT22;8078;47.822;9.402;2023-09-07T02:52:29;15.10;99.90
15959;DHT22;8078;47.822;9.402;2023-09-07T02:54:55;15.20;99.90
15959;DHT22;8078;47.822;9.402;2023-09-07T02:57:20;15.20;99.90
15959;DHT22;8078;47.822;9.402;2023-09-07T02:59:46;15.20;99.90
15959;DHT22;8078;47.822;9.402;2023-09-07T03:02:11;15.20;99.90
15959;DHT22;8078;47.822;9.402;2023-09-07T03:04:37;15.20;99.90
15959;DHT22;8078;47.822;9.402;2023-09-07T03:07:03;15.10;99.90
15959;DHT22;8078;47.822;9.402;2023-09-07T03:09:29;15.00;99.90
15959;DHT22;8078;47.822;9.402;2023-09-07T03:11:54;15.00;99.90
15959;DHT22;8078;47.822;9.402;2023-09-07T03:14:20;15.10;99.90
15959;DHT22;8078;47.822;9.402;2023-09-07T03:16:45;15.20;99.90
15959;DHT22;8078;47.822;9.402;2023-09-07T03:19:14;15.20;99.90
15959;DHT22;8078;47.822;9.402;2023-09-07T03:21:39;15.30;99.90
15959;DHT22;8078;47.822;9.402;2023-09-07T03:24:05;15.40;99.90
15959;DHT22;8078;47.822;9.402;2023-09-07T03:26:31;15.40;99.90
15959;DHT22;8078;47.822;9.402;2023-09-07T03:28:56;15.40;99.90
15959;DHT22;8078;47.822;9.402;2023-09-07T03:31:23;15.30;99.90
15959;DHT22;8078;47.822;9.402;2023-09-07T03:33:48;15.30;99.90
15959;DHT22;8078;47.822;9.402;2023-09-07T03:36:15;15.10;99.90
15959;DHT22;8078;47.822;9.402;2023-09-07T03:38:41;15.10;99.90
15959;DHT22;8078;47.822;9.402;2023-09-07T03:41:06;14.90;99.90
15959;DHT22;8078;47.822;9.402;2023-09-07T03:43:32;15.10;99.90
15959;DHT22;8078;47.822;9.402;2023-09-07T03:45:57;15.00;99.90
15959;DHT22;8078;47.822;9.402;2023-09-07T03:48:23;15.00;99.90
15959;DHT22;8078;47.822;9.402;2023-09-07T03:50:49;15.00;99.90
15959;DHT22;8078;47.822;9.402;2023-09-07T03:53:15;15.10;99.90
15959;DHT22;8078;47.822;9.402;2023-09-07T03:55:41;15.00;99.90
15959;DHT22;8078;47.822;9.402;2023-09-07T03:58:11;15.00;99.90
15959;DHT22;8078;47.822;9.402;2023-09-07T04:00:40;15.00;99.90
15959;DHT22;8078;47.822;9.402;2023-09-07T04:03:07;14.80;99.90
15959;DHT22;8078;47.822;9.402;2023-09-07T04:05:32;14.60;99.90
15959;DHT22;8078;47.822;9.402;2023-09-07T04:07:59;14.50;99.90
15959;DHT22;8078;47.822;9.402;2023-09-07T04:10:25;14.30;99.90
15959;DHT22;8078;47.822;9.402;2023-09-07T04:12:51;14.20;99.90
15959;DHT22;8078;47.822;9.402;2023-09-07T04:15:17;14.10;99.90
15959;DHT22;8078;47.822;9.402;2023-09-07T04:17:42;14.00;99.90
15959;DHT22;8078;47.822;9.402;2023-09-07T04:20:09;14.10;99.90
15959;DHT22;8078;47.822;9.402;2023-09-07T04:22:36;14.20;99.90
15959;DHT22;8078;47.822;9.402;2023-09-07T04:25:01;14.20;99.90
15959;DHT22;8078;47.822;9.402;2023-09-07T04:27:27;14.30;99.90
15959;DHT22;8078;47.822;9.402;2023-09-07T04:29:52;14.30;99.90
15959;DHT22;8078;47.822;9.402;2023-09-07T04:32:19;14.30;99.90
15959;DHT22;8078;47.822;9.402;2023-09-07T04:34:44;14.40;99.90
15959;DHT22;8078;47.822;9.402;2023-09-07T04:37:11;14.40;99.90
15959;DHT22;8078;47.822;9.402;2023-09-07T04:39:37;14.30;99.90
15959;DHT22;8078;47.822;9.402;2023-09-07T04:42:02;14.30;99.90
15959;DHT22;8078;47.822;9.402;2023-09-07T04:44:28;14.30;99.90
15959;DHT22;8078;47.822;9.402;2023-09-07T04:46:57;14.20;99.90
15959;DHT22;8078;47.822;9.402;2023-09-07T04:49:25;14.20;99.90
15959;DHT22;8078;47.822;9.402;2023-09-07T04:51:54;14.20;99.90
15959;DHT22;8078;47.822;9.402;2023-09-07T04:54:20;14.30;99.90
15959;DHT22;8078;47.822;9.402;2023-09-07T04:56:45;14.40;99.90
15959;DHT22;8078;47.822;9.402;2023-09-07T04:59:11;14.40;99.90
15959;DHT22;8078;47.822;9.402;2023-09-07T05:01:36;14.40;99.90
15959;DHT22;8078;47.822;9.402;2023-09-07T05:04:02;14.50;99.90
15959;DHT22;8078;47.822;9.402;2023-09-07T05:06:29;14.50;99.90
15959;DHT22;8078;47.822;9.402;2023-09-07T05:08:55;14.50;99.90
15959;DHT22;8078;47.822;9.402;2023-09-07T05:11:20;14.60;99.90
15959;DHT22;8078;47.822;9.402;2023-09-07T05:13:46;14.70;99.90
15959;DHT22;8078;47.822;9.402;2023-09-07T05:16:12;14.80;99.90
15959;DHT22;8078;47.822;9.402;2023-09-07T05:18:37;14.90;99.90
15959;DHT22;8078;47.822;9.402;2023-09-07T05:21:16;15.00;99.90
15959;DHT22;8078;47.822;9.402;2023-09-07T05:23:42;15.20;99.90
15959;DHT22;8078;47.822;9.402;2023-09-07T05:26:07;15.40;99.90
15959;DHT22;8078;47.822;9.402;2023-09-07T05:28:33;15.50;99.90
15959;DHT22;8078;47.822;9.402;2023-09-07T05:30:58;15.60;99.90
15959;DHT22;8078;47.822;9.402;2023-09-07T05:33:24;15.80;99.90
15959;DHT22;8078;47.822;9.402;2023-09-07T05:35:49;15.90;99.90
15959;DHT22;8078;47.822;9.402;2023-09-07T05:38:15;16.20;99.90
15959;DHT22;8078;47.822;9.402;2023-09-07T05:40:42;16.40;99.90
15959;DHT22;8078;47.822;9.402;2023-09-07T05:43:08;16.50;99.90
15959;DHT22;8078;47.822;9.402;2023-09-07T05:45:36;16.70;99.90
15959;DHT22;8078;47.822;9.402;2023-09-07T05:48:03;16.90;99.90
15959;DHT22;8078;47.822;9.402;2023-09-07T05:50:28;17.10;99.90
15959;DHT22;8078;47.822;9.402;2023-09-07T05:52:54;17.30;99.90
15959;DHT22;8078;47.822;9.402;2023-09-07T05:55:20;17.50;99.90
15959;DHT22;8078;47.822;9.402;2023-09-07T05:57:45;17.60;99.90
15959;DHT22;8078;47.822;9.402;2023-09-07T06:00:12;17.80;99.90
15959;DHT22;8078;47.822;9.402;2023-09-07T06:02:38;17.90;99.90
15959;DHT22;8078;47.822;9.402;2023-09-07T06:05:05;18.00;99.90
15959;DHT22;8078;47.822;9.402;2023-09-07T06:07:30;18.10;99.90
15959;DHT22;8078;47.822;9.402;2023-09-07T06:09:56;18.30;99.90
15959;DHT22;8078;47.822;9.402;2023-09-07T06:12:24;18.40;99.90
15959;DHT22;8078;47.822;9.402;2023-09-07T06:14:50;18.70;99.90
15959;DHT22;8078;47.822;9.402;2023-09-07T06:17:15;19.00;99.90
15959;DHT22;8078;47.822;9.402;2023-09-07T06:19:41;19.30;99.90
15959;DHT22;8078;47.822;9.402;2023-09-07T06:22:06;19.50;99.90
15959;DHT22;8078;47.822;9.402;2023-09-07T06:24:32;19.60;99.90
15959;DHT22;8078;47.822;9.402;2023-09-07T06:26:57;19.70;99.90
15959;DHT22;8078;47.822;9.402;2023-09-07T06:29:23;19.80;99.90
15959;DHT22;8078;47.822;9.402;2023-09-07T06:31:48;19.90;99.90
15959;DHT22;8078;47.822;9.402;2023-09-07T06:34:15;20.00;99.90
15959;DHT22;8078;47.822;9.402;2023-09-07T06:36:41;20.20;99.90
15959;DHT22;8078;47.822;9.402;2023-09-07T06:39:06;20.20;99.90
15959;DHT22;8078;47.822;9.402;2023-09-07T06:41:33;20.30;99.90
15959;DHT22;8078;47.822;9.402;2023-09-07T06:43:58;20.50;99.90
15959;DHT22;8078;47.822;9.402;2023-09-07T06:46:24;20.60;99.90
15959;DHT22;8078;47.822;9.402;2023-09-07T06:48:49;20.80;99.90
15959;DHT22;8078;47.822;9.402;2023-09-07T06:51:15;20.90;99.90
15959;DHT22;8078;47.822;9.402;2023-09-07T06:53:40;21.10;99.90
15959;DHT22;8078;47.822;9.402;2023-09-07T06:56:06;21.20;99.90
15959;DHT22;8078;47.822;9.402;2023-09-07T06:58:32;21.00;99.90
15959;DHT22;8078;47.822;9.402;2023-09-07T07:01:00;20.90;99.90
15959;DHT22;8078;47.822;9.402;2023-09-07T07:03:27;20.90;99.90
15959;DHT22;8078;47.822;9.402;2023-09-07T07:05:53;21.00;99.90
15959;DHT22;8078;47.822;9.402;2023-09-07T07:08:18;20.30;99.90
15959;DHT22;8078;47.822;9.402;2023-09-07T07:10:44;19.80;99.90
15959;DHT22;8078;47.822;9.402;2023-09-07T07:13:10;19.80;99.90
15959;DHT22;8078;47.822;9.402;2023-09-07T07:15:36;19.80;99.90
15959;DHT22;8078;47.822;9.402;2023-09-07T07:18:02;20.20;99.90
15959;DHT22;8078;47.822;9.402;2023-09-07T07:20:34;19.70;99.90
15959;DHT22;8078;47.822;9.402;2023-09-07T07:23:00;19.60;99.90
15959;DHT22;8078;47.822;9.402;2023-09-07T07:25:25;19.50;99.90
15959;DHT22;8078;47.822;9.402;2023-09-07T07:27:51;19.60;99.90
15959;DHT22;8078;47.822;9.402;2023-09-07T07:30:16;19.80;99.90
15959;DHT22;8078;47.822;9.402;2023-09-07T07:32:42;19.60;99.90
15959;DHT22;8078;47.822;9.402;2023-09-07T07:35:08;19.60;99.90
15959;DHT22;8078;47.822;9.402;2023-09-07T07:37:33;19.60;99.90
15959;DHT22;8078;47.822;9.402;2023-09-07T07:39:59;19.70;99.90
15959;DHT22;8078;47.822;9.402;2023-09-07T07:42:24;20.00;99.90
15959;DHT22;8078;47.822;9.402;2023-09-07T07:44:50;20.20;99.90
15959;DHT22;8078;47.822;9.402;2023-09-07T07:47:15;20.30;99.90
15959;DHT22;8078;47.822;9.402;2023-09-07T07:49:41;20.80;99.90
15959;DHT22;8078;47.822;9.402;2023-09-07T07:52:07;21.10;99.90
15959;DHT22;8078;47.822;9.402;2023-09-07T07:54:34;20.90;99.90
15959;DHT22;8078;47.822;9.402;2023-09-07T07:56:59;20.80;99.90
15959;DHT22;8078;47.822;9.402;2023-09-07T07:59:25;21.20;99.90
15959;DHT22;8078;47.822;9.402;2023-09-07T08:01:50;21.20;99.90
15959;DHT22;8078;47.822;9.402;2023-09-07T08:04:16;21.40;99.90
15959;DHT22;8078;47.822;9.402;2023-09-07T08:06:41;21.40;99.90
15959;DHT22;8078;47.822;9.402;2023-09-07T08:09:07;21.20;99.90
15959;DHT22;8078;47.822;9.402;2023-09-07T08:11:33;21.00;99.90
15959;DHT22;8078;47.822;9.402;2023-09-07T08:13:59;20.50;99.90
15959;DHT22;8078;47.822;9.402;2023-09-07T08:16:25;20.40;99.90
15959;DHT22;8078;47.822;9.402;2023-09-07T08:18:50;20.40;99.90
15959;DHT22;8078;47.822;9.402;2023-09-07T08:21:16;20.50;99.90
15959;DHT22;8078;47.822;9.402;2023-09-07T08:23:41;20.70;99.90
15959;DHT22;8078;47.822;9.402;2023-09-07T08:26:07;21.00;99.90
15959;DHT22;8078;47.822;9.402;2023-09-07T08:28:34;21.60;99.90
15959;DHT22;8078;47.822;9.402;2023-09-07T08:31:00;21.70;99.90
15959;DHT22;8078;47.822;9.402;2023-09-07T08:33:26;22.20;99.90
15959;DHT22;8078;47.822;9.402;2023-09-07T08:35:56;22.50;99.90
15959;DHT22;8078;47.822;9.402;2023-09-07T08:38:22;23.00;99.90
15959;DHT22;8078;47.822;9.402;2023-09-07T08:40:53;23.00;99.90
15959;DHT22;8078;47.822;9.402;2023-09-07T08:43:19;23.30;99.90
15959;DHT22;8078;47.822;9.402;2023-09-07T08:45:50;23.90;99.90
15959;DHT22;8078;47.822;9.402;2023-09-07T08:48:18;24.40;99.90
15959;DHT22;8078;47.822;9.402;2023-09-07T08:50:47;24.60;99.90
15959;DHT22;8078;47.822;9.402;2023-09-07T08:53:18;24.60;99.90
15959;DHT22;8078;47.822;9.402;2023-09-07T08:55:45;24.80;99.90
15959;DHT22;8078;47.822;9.402;2023-09-07T08:58:11;25.00;99.90
15959;DHT22;8078;47.822;9.402;2023-09-07T09:00:37;24.90;99.90
15959;DHT22;8078;47.822;9.402;2023-09-07T09:03:03;25.20;99.90
15959;DHT22;8078;47.822;9.402;2023-09-07T09:05:30;25.40;99.90
15959;DHT22;8078;47.822;9.402;2023-09-07T09:08:05;25.40;99.90
15959;DHT22;8078;47.822;9.402;2023-09-07T09:10:31;24.00;99.90
15959;DHT22;8078;47.822;9.402;2023-09-07T09:12:57;23.10;99.90
15959;DHT22;8078;47.822;9.402;2023-09-07T09:15:25;22.30;99.90
15959;DHT22;8078;47.822;9.402;2023-09-07T09:17:53;21.70;99.90
15959;DHT22;8078;47.822;9.402;2023-09-07T09:20:23;21.60;99.90
15959;DHT22;8078;47.822;9.402;2023-09-07T09:22:53;22.00;99.90
15959;DHT22;8078;47.822;9.402;2023-09-07T09:25:20;22.00;99.90
15959;DHT22;8078;47.822;9.402;2023-09-07T09:27:49;22.50;99.90
15959;DHT22;8078;47.822;9.402;2023-09-07T09:30:14;22.90;99.90
15959;DHT22;8078;47.822;9.402;2023-09-07T09:32:42;23.50;99.90
15959;DHT22;8078;47.822;9.402;2023-09-07T09:35:09;24.00;99.90
15959;DHT22;8078;47.822;9.402;2023-09-07T09:37:43;24.70;99.90
15959;DHT22;8078;47.822;9.402;2023-09-07T09:40:09;25.20;99.90
15959;DHT22;8078;47.822;9.402;2023-09-07T09:42:35;25.60;99.90
15959;DHT22;8078;47.822;9.402;2023-09-07T09:45:03;25.40;99.90
15959;DHT22;8078;47.822;9.402;2023-09-07T09:47:31;25.20;99.90
15959;DHT22;8078;47.822;9.402;2023-09-07T09:49:57;25.70;99.90
15959;DHT22;8078;47.822;9.402;2023-09-07T09:52:24;26.10;99.90
15959;DHT22;8078;47.822;9.402;2023-09-07T09:54:51;25.90;99.90
15959;DHT22;8078;47.822;9.402;2023-09-07T09:59:43;26.40;99.90
15959;DHT22;8078;47.822;9.402;2023-09-07T10:02:10;26.40;99.90
15959;DHT22;8078;47.822;9.402;2023-09-07T10:04:36;26.50;99.90
15959;DHT22;8078;47.822;9.402;2023-09-07T10:07:02;26.60;99.90
15959;DHT22;8078;47.822;9.402;2023-09-07T10:09:33;26.70;99.90
15959;DHT22;8078;47.822;9.402;2023-09-07T10:11:59;26.60;99.90
15959;DHT22;8078;47.822;9.402;2023-09-07T10:14:26;26.90;99.90
15959;DHT22;8078;47.822;9.402;2023-09-07T10:17:03;26.80;99.90
15959;DHT22;8078;47.822;9.402;2023-09-07T10:19:29;26.40;99.90
15959;DHT22;8078;47.822;9.402;2023-09-07T10:21:55;26.80;99.90
15959;DHT22;8078;47.822;9.402;2023-09-07T10:24:31;26.10;99.90
15959;DHT22;8078;47.822;9.402;2023-09-07T10:29:50;26.40;99.90
15959;DHT22;8078;47.822;9.402;2023-09-07T10:32:19;25.80;99.90
15959;DHT22;8078;47.822;9.402;2023-09-07T10:34:44;25.70;99.90
15959;DHT22;8078;47.822;9.402;2023-09-07T10:37:11;25.60;99.90
15959;DHT22;8078;47.822;9.402;2023-09-07T10:39:39;25.20;99.90
15959;DHT22;8078;47.822;9.402;2023-09-07T10:42:05;25.50;99.90
15959;DHT22;8078;47.822;9.402;2023-09-07T10:44:31;25.80;99.90
15959;DHT22;8078;47.822;9.402;2023-09-07T10:46:57;26.20;99.90
15959;DHT22;8078;47.822;9.402;2023-09-07T10:49:23;26.60;99.90
15959;DHT22;8078;47.822;9.402;2023-09-07T10:51:49;26.90;99.90
15959;DHT22;8078;47.822;9.402;2023-09-07T10:54:25;27.40;99.90
15959;DHT22;8078;47.822;9.402;2023-09-07T10:56:51;27.30;99.90
15959;DHT22;8078;47.822;9.402;2023-09-07T10:59:17;27.50;99.90
15959;DHT22;8078;47.822;9.402;2023-09-07T11:01:46;27.80;99.90
15959;DHT22;8078;47.822;9.402;2023-09-07T11:04:13;27.90;99.90
15959;DHT22;8078;47.822;9.402;2023-09-07T11:06:40;28.10;99.90
15959;DHT22;8078;47.822;9.402;2023-09-07T11:09:08;28.10;99.90
15959;DHT22;8078;47.822;9.402;2023-09-07T11:11:36;27.60;99.90
15959;DHT22;8078;47.822;9.402;2023-09-07T11:14:03;27.30;99.90
15959;DHT22;8078;47.822;9.402;2023-09-07T11:16:30;27.40;99.90
15959;DHT22;8078;47.822;9.402;2023-09-07T11:18:55;26.80;99.90
15959;DHT22;8078;47.822;9.402;2023-09-07T11:21:21;27.20;99.90
15959;DHT22;8078;47.822;9.402;2023-09-07T11:23:47;27.20;99.90
15959;DHT22;8078;47.822;9.402;2023-09-07T11:26:14;27.50;99.90
15959;DHT22;8078;47.822;9.402;2023-09-07T11:28:45;27.70;99.90
15959;DHT22;8078;47.822;9.402;2023-09-07T11:31:10;27.80;99.90
15959;DHT22;8078;47.822;9.402;2023-09-07T11:33:36;27.90;99.90
15959;DHT22;8078;47.822;9.402;2023-09-07T11:36:02;28.20;99.90
15959;DHT22;8078;47.822;9.402;2023-09-07T11:38:30;28.40;99.90
15959;DHT22;8078;47.822;9.402;2023-09-07T11:40:56;28.70;99.90
15959;DHT22;8078;47.822;9.402;2023-09-07T11:43:22;28.20;99.90
15959;DHT22;8078;47.822;9.402;2023-09-07T11:45:48;27.90;99.90
15959;DHT22;8078;47.822;9.402;2023-09-07T11:48:13;27.80;99.90
15959;DHT22;8078;47.822;9.402;2023-09-07T11:50:40;27.60;99.90
15959;DHT22;8078;47.822;9.402;2023-09-07T11:53:06;27.70;99.90
15959;DHT22;8078;47.822;9.402;2023-09-07T11:55:33;27.80;99.90
15959;DHT22;8078;47.822;9.402;2023-09-07T11:58:00;27.70;99.90
15959;DHT22;8078;47.822;9.402;2023-09-07T12:00:26;28.00;99.90
15959;DHT22;8078;47.822;9.402;2023-09-07T12:02:52;28.30;99.90
15959;DHT22;8078;47.822;9.402;2023-09-07T12:05:18;28.40;99.90
15959;DHT22;8078;47.822;9.402;2023-09-07T12:07:44;28.90;99.90
15959;DHT22;8078;47.822;9.402;2023-09-07T12:10:11;28.90;99.90
15959;DHT22;8078;47.822;9.402;2023-09-07T12:12:37;28.70;99.90
15959;DHT22;8078;47.822;9.402;2023-09-07T12:15:04;28.80;99.90
15959;DHT22;8078;47.822;9.402;2023-09-07T12:17:30;28.70;99.90
15959;DHT22;8078;47.822;9.402;2023-09-07T12:19:56;28.60;99.90
15959;DHT22;8078;47.822;9.402;2023-09-07T12:22:22;28.70;99.90
15959;DHT22;8078;47.822;9.402;2023-09-07T12:24:47;28.40;99.90
15959;DHT22;8078;47.822;9.402;2023-09-07T12:27:13;28.20;99.90
15959;DHT22;8078;47.822;9.402;2023-09-07T12:29:39;28.60;99.90
15959;DHT22;8078;47.822;9.402;2023-09-07T12:32:05;28.90;99.90
15959;DHT22;8078;47.822;9.402;2023-09-07T12:34:31;28.90;99.90
15959;DHT22;8078;47.822;9.402;2023-09-07T12:36:56;29.20;99.90
15959;DHT22;8078;47.822;9.402;2023-09-07T12:39:22;29.00;99.90
15959;DHT22;8078;47.822;9.402;2023-09-07T12:41:47;29.60;99.90
15959;DHT22;8078;47.822;9.402;2023-09-07T12:44:13;29.50;99.90
15959;DHT22;8078;47.822;9.402;2023-09-07T12:46:40;30.00;99.90
15959;DHT22;8078;47.822;9.402;2023-09-07T12:49:05;30.10;99.90
15959;DHT22;8078;47.822;9.402;2023-09-07T12:51:31;30.20;99.90
15959;DHT22;8078;47.822;9.402;2023-09-07T12:53:57;30.10;99.90
15959;DHT22;8078;47.822;9.402;2023-09-07T12:58:48;30.50;99.90
15959;DHT22;8078;47.822;9.402;2023-09-07T13:01:14;30.40;99.90
15959;DHT22;8078;47.822;9.402;2023-09-07T13:03:42;30.40;99.90
15959;DHT22;8078;47.822;9.402;2023-09-07T13:06:07;30.10;99.90
15959;DHT22;8078;47.822;9.402;2023-09-07T13:08:34;30.70;99.90
15959;DHT22;8078;47.822;9.402;2023-09-07T13:10:59;30.70;99.90
15959;DHT22;8078;47.822;9.402;2023-09-07T13:13:25;30.20;99.90
15959;DHT22;8078;47.822;9.402;2023-09-07T13:15:57;30.40;99.90
15959;DHT22;8078;47.822;9.402;2023-09-07T13:18:23;30.70;99.90
15959;DHT22;8078;47.822;9.402;2023-09-07T13:20:48;30.80;99.90
15959;DHT22;8078;47.822;9.402;2023-09-07T13:23:20;31.20;99.90
15959;DHT22;8078;47.822;9.402;2023-09-07T13:25:46;31.50;99.90
15959;DHT22;8078;47.822;9.402;2023-09-07T13:28:11;31.60;99.90
15959;DHT22;8078;47.822;9.402;2023-09-07T13:30:37;31.70;99.90
15959;DHT22;8078;47.822;9.402;2023-09-07T13:33:02;31.30;99.90
15959;DHT22;8078;47.822;9.402;2023-09-07T13:35:28;30.90;99.90
15959;DHT22;8078;47.822;9.402;2023-09-07T13:37:55;31.30;99.90
15959;DHT22;8078;47.822;9.402;2023-09-07T13:40:20;31.40;99.90
15959;DHT22;8078;47.822;9.402;2023-09-07T13:42:49;31.60;99.90
15959;DHT22;8078;47.822;9.402;2023-09-07T13:45:15;31.60;99.90
15959;DHT22;8078;47.822;9.402;2023-09-07T13:47:40;31.10;99.90
15959;DHT22;8078;47.822;9.402;2023-09-07T13:50:06;31.20;99.90
15959;DHT22;8078;47.822;9.402;2023-09-07T13:52:32;30.70;99.90
15959;DHT22;8078;47.822;9.402;2023-09-07T13:54:57;30.30;99.90
15959;DHT22;8078;47.822;9.402;2023-09-07T13:57:23;30.40;99.90
15959;DHT22;8078;47.822;9.402;2023-09-07T13:59:49;30.30;99.90
15959;DHT22;8078;47.822;9.402;2023-09-07T14:02:14;30.30;99.90
15959;DHT22;8078;47.822;9.402;2023-09-07T14:04:40;30.60;99.90
15959;DHT22;8078;47.822;9.402;2023-09-07T14:07:05;30.70;99.90
15959;DHT22;8078;47.822;9.402;2023-09-07T14:09:31;31.00;99.90
15959;DHT22;8078;47.822;9.402;2023-09-07T14:11:57;31.00;99.90
15959;DHT22;8078;47.822;9.402;2023-09-07T14:14:22;30.50;99.90
15959;DHT22;8078;47.822;9.402;2023-09-07T14:16:48;30.50;99.90
15959;DHT22;8078;47.822;9.402;2023-09-07T14:19:15;30.40;99.90
15959;DHT22;8078;47.822;9.402;2023-09-07T14:21:41;30.60;99.90
15959;DHT22;8078;47.822;9.402;2023-09-07T14:24:06;30.90;99.90
15959;DHT22;8078;47.822;9.402;2023-09-07T14:26:32;31.20;99.90
15959;DHT22;8078;47.822;9.402;2023-09-07T14:28:57;31.70;99.90
15959;DHT22;8078;47.822;9.402;2023-09-07T14:31:23;32.20;99.90
15959;DHT22;8078;47.822;9.402;2023-09-07T14:33:48;32.70;99.90
15959;DHT22;8078;47.822;9.402;2023-09-07T14:36:15;32.90;99.90
15959;DHT22;8078;47.822;9.402;2023-09-07T14:38:41;33.00;99.90
15959;DHT22;8078;47.822;9.402;2023-09-07T14:41:10;33.10;99.90
15959;DHT22;8078;47.822;9.402;2023-09-07T14:43:47;32.70;99.90
15959;DHT22;8078;47.822;9.402;2023-09-07T14:46:13;32.60;99.90
15959;DHT22;8078;47.822;9.402;2023-09-07T14:48:39;32.70;99.90
15959;DHT22;8078;47.822;9.402;2023-09-07T14:51:04;32.40;99.90
15959;DHT22;8078;47.822;9.402;2023-09-07T14:53:30;32.60;99.90
15959;DHT22;8078;47.822;9.402;2023-09-07T14:55:56;32.20;99.90
15959;DHT22;8078;47.822;9.402;2023-09-07T14:58:22;32.30;99.90
15959;DHT22;8078;47.822;9.402;2023-09-07T15:00:47;33.10;99.90
15959;DHT22;8078;47.822;9.402;2023-09-07T15:03:13;33.10;99.90
15959;DHT22;8078;47.822;9.402;2023-09-07T15:05:38;32.30;99.90
15959;DHT22;8078;47.822;9.402;2023-09-07T15:08:04;32.80;99.90
15959;DHT22;8078;47.822;9.402;2023-09-07T15:10:32;33.30;99.90
15959;DHT22;8078;47.822;9.402;2023-09-07T15:13:00;33.70;99.90
15959;DHT22;8078;47.822;9.402;2023-09-07T15:15:28;34.00;99.90
15959;DHT22;8078;47.822;9.402;2023-09-07T15:17:54;34.20;99.90
15959;DHT22;8078;47.822;9.402;2023-09-07T15:20:20;34.50;99.90
15959;DHT22;8078;47.822;9.402;2023-09-07T17:00:16;26.50;99.90
15959;DHT22;8078;47.822;9.402;2023-09-07T17:02:41;25.90;99.90
15959;DHT22;8078;47.822;9.402;2023-09-07T17:05:07;25.40;99.90
15959;DHT22;8078;47.822;9.402;2023-09-07T17:07:35;25.00;99.90
15959;DHT22;8078;47.822;9.402;2023-09-07T17:10:01;24.50;99.90
15959;DHT22;8078;47.822;9.402;2023-09-07T17:12:27;24.10;99.90
15959;DHT22;8078;47.822;9.402;2023-09-07T17:14:52;23.70;99.90
15959;DHT22;8078;47.822;9.402;2023-09-07T17:17:18;23.50;99.90
15959;DHT22;8078;47.822;9.402;2023-09-07T17:19:43;23.20;99.90
15959;DHT22;8078;47.822;9.402;2023-09-07T17:22:09;23.00;99.90
15959;DHT22;8078;47.822;9.402;2023-09-07T17:24:35;22.90;99.90